sensor_id;sensor_type;location;lat;lon;timestamp;temperature;humidity
23609;DHT22;11982;50.810;4.442;2023-08-08T00:00:08;12.80;99.90
23609;DHT22;11982;50.810;4.442;2023-08-08T00:02:34;12.80;99.90
23609;DHT22;11982;50.810;4.442;2023-08-08T00:05:00;12.80;99.90
23609;DHT22;11982;50.810;4.442;2023-08-08T00:07:26;12.80;99.90
23609;DHT22;11982;50.810;4.442;2023-08-08T00:09:55;12.80;99.90
23609;DHT22;11982;50.810;4.442;2023-08-08T00:12:21;12.80;99.90
23609;DHT22;11982;50.810;4.442;2023-08-08T00:14:47;12.80;99.90
23609;DHT22;11982;50.810;4.442;2023-08-08T00:17:17;12.80;99.90
23609;DHT22;11982;50.810;4.442;2023-08-08T00:19:43;12.80;99.90
23609;DHT22;11982;50.810;4.442;2023-08-08T00:22:08;12.80;99.90
23609;DHT22;11982;50.810;4.442;2023-08-08T00:24:34;12.70;99.90
23609;DHT22;11982;50.810;4.442;2023-08-08T00:27:00;12.70;99.90
23609;DHT22;11982;50.810;4.442;2023-08-08T00:29:26;12.80;99.90
23609;DHT22;11982;50.810;4.442;2023-08-08T00:31:51;12.70;99.90
23609;DHT22;11982;50.810;4.442;2023-08-08T00:34:17;12.70;99.90
23609;DHT22;11982;50.810;4.442;2023-08-08T00:36:43;12.80;99.90
23609;DHT22;11982;50.810;4.442;2023-08-08T00:39:08;12.80;99.90
23609;DHT22;11982;50.810;4.442;2023-08-08T00:41:34;12.70;99.90
23609;DHT22;11982;50.810;4.442;2023-08-08T00:44:00;12.70;99.90
23609;DHT22;11982;50.810;4.442;2023-08-08T00:46:25;12.70;99.90
23609;DHT22;11982;50.810;4.442;2023-08-08T00:48:52;12.60;99.90
23609;DHT22;11982;50.810;4.442;2023-08-08T00:51:18;12.70;99.90
23609;DHT22;11982;50.810;4.442;2023-08-08T00:53:45;12.70;99.90
23609;DHT22;11982;50.810;4.442;2023-08-08T00:56:14;12.70;99.90
23609;DHT22;11982;50.810;4.442;2023-08-08T00:58:42;12.60;99.90
23609;DHT22;11982;50.810;4.442;2023-08-08T01:01:11;12.60;99.90
23609;DHT22;11982;50.810;4.442;2023-08-08T01:03:37;12.60;99.90
23609;DHT22;11982;50.810;4.442;2023-08-08T01:08:35;12.60;99.90
23609;DHT22;11982;50.810;4.442;2023-08-08T01:11:05;12.60;99.90
23609;DHT22;11982;50.810;4.442;2023-08-08T01:13:32;12.60;99.90
23609;DHT22;11982;50.810;4.442;2023-08-08T01:15:58;12.60;99.90
23609;DHT22;11982;50.810;4.442;2023-08-08T01:18:25;12.60;99.90
23609;DHT22;11982;50.810;4.442;2023-08-08T01:20:52;12.60;99.90
23609;DHT22;11982;50.810;4.442;2023-08-08T01:23:34;12.60;99.90
23609;DHT22;11982;50.810;4.442;2023-08-08T01:26:06;12.60;99.90
23609;DHT22;11982;50.810;4.442;2023-08-08T01:28:34;12.60;99.90
23609;DHT22;11982;50.810;4.442;2023-08-08T01:31:00;12.60;99.90
23609;DHT22;11982;50.810;4.442;2023-08-08T01:33:25;12.60;99.90
23609;DHT22;11982;50.810;4.442;2023-08-08T01:35:58;12.50;99.90
23609;DHT22;11982;50.810;4.442;2023-08-08T01:38:31;12.50;99.90
23609;DHT22;11982;50.810;4.442;2023-08-08T01:40:59;12.60;99.90
23609;DHT22;11982;50.810;4.442;2023-08-08T01:43:26;12.60;99.90
23609;DHT22;11982;50.810;4.442;2023-08-08T01:45:52;12.50;99.90
23609;DHT22;11982;50.810;4.442;2023-08-08T01:48:18;12.50;99.90
23609;DHT22;11982;50.810;4.442;2023-08-08T01:50:44;12.50;99.90
23609;DHT22;11982;50.810;4.442;2023-08-08T01:53:10;12.50;99.90
23609;DHT22;11982;50.810;4.442;2023-08-08T01:55:36;12.50;99.90
23609;DHT22;11982;50.810;4.442;2023-08-08T01:58:01;12.60;99.90
23609;DHT22;11982;50.810;4.442;2023-08-08T02:00:27;12.50;99.90
23609;DHT22;11982;50.810;4.442;2023-08-08T02:02:53;12.60;99.90
23609;DHT22;11982;50.810;4.442;2023-08-08T02:05:18;12.60;99.90
23609;DHT22;11982;50.810;4.442;2023-08-08T02:07:44;12.50;99.90
23609;DHT22;11982;50.810;4.442;2023-08-08T02:10:10;12.50;99.90
23609;DHT22;11982;50.810;4.442;2023-08-08T02:12:35;12.50;99.90
23609;DHT22;11982;50.810;4.442;2023-08-08T02:15:01;12.50;99.90
23609;DHT22;11982;50.810;4.442;2023-08-08T02:17:27;12.50;99.90
23609;DHT22;11982;50.810;4.442;2023-08-08T02:19:53;12.50;99.90
23609;DHT22;11982;50.810;4.442;2023-08-08T02:22:18;12.50;99.90
23609;DHT22;11982;50.810;4.442;2023-08-08T02:24:44;12.50;99.90
23609;DHT22;11982;50.810;4.442;2023-08-08T02:27:11;12.50;99.90
23609;DHT22;11982;50.810;4.442;2023-08-08T02:29:37;12.50;99.90
23609;DHT22;11982;50.810;4.442;2023-08-08T02:32:03;12.50;99.90
23609;DHT22;11982;50.810;4.442;2023-08-08T02:34:29;12.40;99.90
23609;DHT22;11982;50.810;4.442;2023-08-08T02:36:54;12.40;99.90
23609;DHT22;11982;50.810;4.442;2023-08-08T02:39:20;12.40;99.90
23609;DHT22;11982;50.810;4.442;2023-08-08T02:41:46;12.40;99.90
23609;DHT22;11982;50.810;4.442;2023-08-08T02:44:11;12.40;99.90
23609;DHT22;11982;50.810;4.442;2023-08-08T02:46:37;12.40;99.90
23609;DHT22;11982;50.810;4.442;2023-08-08T02:49:04;12.40;99.90
23609;DHT22;11982;50.810;4.442;2023-08-08T02:51:36;12.30;99.90
23609;DHT22;11982;50.810;4.442;2023-08-08T02:54:01;12.40;99.90
23609;DHT22;11982;50.810;4.442;2023-08-08T02:56:27;12.30;99.90
23609;DHT22;11982;50.810;4.442;2023-08-08T02:58:53;12.30;99.90
23609;DHT22;11982;50.810;4.442;2023-08-08T03:01:19;12.30;99.90
23609;DHT22;11982;50.810;4.442;2023-08-08T03:03:45;12.30;99.90
23609;DHT22;11982;50.810;4.442;2023-08-08T03:06:10;12.30;99.90
23609;DHT22;11982;50.810;4.442;2023-08-08T03:08:36;12.20;99.90
23609;DHT22;11982;50.810;4.442;2023-08-08T03:11:02;12.20;99.90
23609;DHT22;11982;50.810;4.442;2023-08-08T03:13:27;12.20;99.90
23609;DHT22;11982;50.810;4.442;2023-08-08T03:15:53;12.20;99.90
23609;DHT22;11982;50.810;4.442;2023-08-08T03:18:19;12.20;99.90
23609;DHT22;11982;50.810;4.442;2023-08-08T03:20:44;12.20;99.90
23609;DHT22;11982;50.810;4.442;2023-08-08T03:23:10;12.30;99.90
23609;DHT22;11982;50.810;4.442;2023-08-08T03:25:36;12.20;99.90
23609;DHT22;11982;50.810;4.442;2023-08-08T03:28:01;12.20;99.90
23609;DHT22;11982;50.810;4.442;2023-08-08T03:30:27;12.20;99.90
23609;DHT22;11982;50.810;4.442;2023-08-08T03:32:53;12.10;99.90
23609;DHT22;11982;50.810;4.442;2023-08-08T03:35:18;12.20;99.90
23609;DHT22;11982;50.810;4.442;2023-08-08T03:37:44;12.10;99.90
23609;DHT22;11982;50.810;4.442;2023-08-08T03:40:10;12.10;99.90
23609;DHT22;11982;50.810;4.442;2023-08-08T03:42:36;12.10;99.90
23609;DHT22;11982;50.810;4.442;2023-08-08T03:45:02;12.20;99.90
23609;DHT22;11982;50.810;4.442;2023-08-08T03:47:27;12.20;99.90
23609;DHT22;11982;50.810;4.442;2023-08-08T03:49:55;12.10;99.90
23609;DHT22;11982;50.810;4.442;2023-08-08T03:52:23;12.20;99.90
23609;DHT22;11982;50.810;4.442;2023-08-08T03:54:49;12.20;99.90
23609;DHT22;11982;50.810;4.442;2023-08-08T03:57:14;12.20;99.90
23609;DHT22;11982;50.810;4.442;2023-08-08T03:59:40;12.10;99.90
23609;DHT22;11982;50.810;4.442;2023-08-08T04:02:06;12.10;99.90
23609;DHT22;11982;50.810;4.442;2023-08-08T04:04:31;12.20;99.90
23609;DHT22;11982;50.810;4.442;2023-08-08T04:06:57;12.10;99.90
23609;DHT22;11982;50.810;4.442;2023-08-08T04:09:23;12.20;99.90
23609;DHT22;11982;50.810;4.442;2023-08-08T04:11:48;12.10;99.90
23609;DHT22;11982;50.810;4.442;2023-08-08T04:14:14;12.10;99.90
23609;DHT22;11982;50.810;4.442;2023-08-08T04:16:40;12.10;99.90
23609;DHT22;11982;50.810;4.442;2023-08-08T04:19:05;12.20;99.90
23609;DHT22;11982;50.810;4.442;2023-08-08T04:21:31;12.10;99.90
23609;DHT22;11982;50.810;4.442;2023-08-08T04:24:01;12.20;99.90
23609;DHT22;11982;50.810;4.442;2023-08-08T04:26:27;12.20;99.90
23609;DHT22;11982;50.810;4.442;2023-08-08T04:28:53;12.20;99.90
23609;DHT22;11982;50.810;4.442;2023-08-08T04:31:19;12.20;99.90
23609;DHT22;11982;50.810;4.442;2023-08-08T04:33:52;12.20;99.90
23609;DHT22;11982;50.810;4.442;2023-08-08T04:36:34;12.20;99.90
23609;DHT22;11982;50.810;4.442;2023-08-08T04:38:59;12.20;99.90
23609;DHT22;11982;50.810;4.442;2023-08-08T04:41:25;12.10;99.90
23609;DHT22;11982;50.810;4.442;2023-08-08T04:43:50;12.10;99.90
23609;DHT22;11982;50.810;4.442;2023-08-08T04:46:16;12.10;99.90
23609;DHT22;11982;50.810;4.442;2023-08-08T04:48:42;12.20;99.90
23609;DHT22;11982;50.810;4.442;2023-08-08T04:51:08;12.20;99.90
23609;DHT22;11982;50.810;4.442;2023-08-08T04:53:34;12.30;99.90
23609;DHT22;11982;50.810;4.442;2023-08-08T04:56:00;12.30;99.90
23609;DHT22;11982;50.810;4.442;2023-08-08T04:58:26;12.30;99.90
23609;DHT22;11982;50.810;4.442;2023-08-08T05:00:51;12.30;99.90
23609;DHT22;11982;50.810;4.442;2023-08-08T05:03:17;12.40;99.90
23609;DHT22;11982;50.810;4.442;2023-08-08T05:05:43;12.40;99.90
23609;DHT22;11982;50.810;4.442;2023-08-08T05:08:11;12.40;99.90
23609;DHT22;11982;50.810;4.442;2023-08-08T05:10:37;12.40;99.90
23609;DHT22;11982;50.810;4.442;2023-08-08T05:13:03;12.40;99.90
23609;DHT22;11982;50.810;4.442;2023-08-08T05:15:28;12.50;99.90
23609;DHT22;11982;50.810;4.442;2023-08-08T05:17:54;12.50;99.90
23609;DHT22;11982;50.810;4.442;2023-08-08T05:23:11;12.50;99.90
23609;DHT22;11982;50.810;4.442;2023-08-08T05:25:37;12.50;99.90
23609;DHT22;11982;50.810;4.442;2023-08-08T05:28:03;12.60;99.90
23609;DHT22;11982;50.810;4.442;2023-08-08T05:30:29;12.60;99.90
23609;DHT22;11982;50.810;4.442;2023-08-08T05:32:54;12.60;99.90
23609;DHT22;11982;50.810;4.442;2023-08-08T05:35:20;12.70;99.90
23609;DHT22;11982;50.810;4.442;2023-08-08T05:37:46;12.80;99.90
23609;DHT22;11982;50.810;4.442;2023-08-08T05:40:11;12.90;99.90
23609;DHT22;11982;50.810;4.442;2023-08-08T05:42:38;12.90;99.90
23609;DHT22;11982;50.810;4.442;2023-08-08T05:45:04;12.90;99.90
23609;DHT22;11982;50.810;4.442;2023-08-08T05:47:30;13.10;99.90
23609;DHT22;11982;50.810;4.442;2023-08-08T05:49:56;13.20;99.90
23609;DHT22;11982;50.810;4.442;2023-08-08T05:52:21;13.30;99.90
23609;DHT22;11982;50.810;4.442;2023-08-08T05:54:47;13.40;99.90
23609;DHT22;11982;50.810;4.442;2023-08-08T05:57:13;13.40;99.90
23609;DHT22;11982;50.810;4.442;2023-08-08T05:59:39;13.50;99.90
23609;DHT22;11982;50.810;4.442;2023-08-08T06:02:04;13.50;99.90
23609;DHT22;11982;50.810;4.442;2023-08-08T06:04:30;13.50;99.90
23609;DHT22;11982;50.810;4.442;2023-08-08T06:06:56;13.50;99.90
23609;DHT22;11982;50.810;4.442;2023-08-08T06:09:21;13.50;99.90
23609;DHT22;11982;50.810;4.442;2023-08-08T06:11:48;13.60;99.90
23609;DHT22;11982;50.810;4.442;2023-08-08T06:14:13;13.60;99.90
23609;DHT22;11982;50.810;4.442;2023-08-08T06:16:39;13.70;99.90
23609;DHT22;11982;50.810;4.442;2023-08-08T06:19:05;13.70;99.90
23609;DHT22;11982;50.810;4.442;2023-08-08T06:21:31;13.90;99.90
23609;DHT22;11982;50.810;4.442;2023-08-08T06:23:57;14.10;99.90
23609;DHT22;11982;50.810;4.442;2023-08-08T06:26:23;14.20;99.90
23609;DHT22;11982;50.810;4.442;2023-08-08T06:28:48;14.30;99.90
23609;DHT22;11982;50.810;4.442;2023-08-08T06:31:17;14.40;99.90
23609;DHT22;11982;50.810;4.442;2023-08-08T06:33:43;14.60;99.90
23609;DHT22;11982;50.810;4.442;2023-08-08T06:36:09;14.80;99.90
23609;DHT22;11982;50.810;4.442;2023-08-08T06:38:35;15.00;99.90
23609;DHT22;11982;50.810;4.442;2023-08-08T06:41:04;15.10;99.90
23609;DHT22;11982;50.810;4.442;2023-08-08T06:43:30;15.40;99.90
23609;DHT22;11982;50.810;4.442;2023-08-08T06:45:56;15.50;99.90
23609;DHT22;11982;50.810;4.442;2023-08-08T06:48:22;15.50;99.90
23609;DHT22;11982;50.810;4.442;2023-08-08T06:50:48;15.40;99.90
23609;DHT22;11982;50.810;4.442;2023-08-08T06:53:14;15.30;99.90
23609;DHT22;11982;50.810;4.442;2023-08-08T06:55:40;15.30;99.90
23609;DHT22;11982;50.810;4.442;2023-08-08T06:58:05;15.40;99.90
23609;DHT22;11982;50.810;4.442;2023-08-08T07:00:31;15.40;99.90
23609;DHT22;11982;50.810;4.442;2023-08-08T07:02:57;15.50;99.90
23609;DHT22;11982;50.810;4.442;2023-08-08T07:05:22;15.60;99.90
23609;DHT22;11982;50.810;4.442;2023-08-08T07:07:51;15.60;99.90
23609;DHT22;11982;50.810;4.442;2023-08-08T07:10:17;15.70;99.90
23609;DHT22;11982;50.810;4.442;2023-08-08T07:12:43;15.80;99.90
23609;DHT22;11982;50.810;4.442;2023-08-08T07:15:09;15.80;99.90
23609;DHT22;11982;50.810;4.442;2023-08-08T07:17:35;15.90;99.90
23609;DHT22;11982;50.810;4.442;2023-08-08T07:20:01;16.00;99.90
23609;DHT22;11982;50.810;4.442;2023-08-08T07:22:27;16.10;99.90
23609;DHT22;11982;50.810;4.442;2023-08-08T07:24:55;16.10;99.90
23609;DHT22;11982;50.810;4.442;2023-08-08T07:27:21;16.30;99.90
23609;DHT22;11982;50.810;4.442;2023-08-08T07:29:47;16.20;99.90
23609;DHT22;11982;50.810;4.442;2023-08-08T07:32:13;16.10;99.90
23609;DHT22;11982;50.810;4.442;2023-08-08T07:34:38;16.20;99.90
23609;DHT22;11982;50.810;4.442;2023-08-08T07:37:05;16.30;99.90
23609;DHT22;11982;50.810;4.442;2023-08-08T07:39:30;16.30;99.90
23609;DHT22;11982;50.810;4.442;2023-08-08T07:41:56;16.10;99.90
23609;DHT22;11982;50.810;4.442;2023-08-08T07:44:23;16.10;99.90
23609;DHT22;11982;50.810;4.442;2023-08-08T07:46:48;16.20;99.90
23609;DHT22;11982;50.810;4.442;2023-08-08T07:49:14;16.10;99.90
23609;DHT22;11982;50.810;4.442;2023-08-08T07:51:40;16.00;99.90
23609;DHT22;11982;50.810;4.442;2023-08-08T07:54:05;16.20;99.90
23609;DHT22;11982;50.810;4.442;2023-08-08T07:56:35;16.30;99.90
23609;DHT22;11982;50.810;4.442;2023-08-08T07:59:01;16.20;99.90
23609;DHT22;11982;50.810;4.442;2023-08-08T08:01:28;16.30;99.90
23609;DHT22;11982;50.810;4.442;2023-08-08T08:03:54;16.50;99.90
23609;DHT22;11982;50.810;4.442;2023-08-08T08:06:20;16.70;99.90
23609;DHT22;11982;50.810;4.442;2023-08-08T08:08:45;16.80;99.90
23609;DHT22;11982;50.810;4.442;2023-08-08T08:11:11;16.90;99.90
23609;DHT22;11982;50.810;4.442;2023-08-08T08:13:38;17.10;99.90
23609;DHT22;11982;50.810;4.442;2023-08-08T08:16:04;17.10;99.90
23609;DHT22;11982;50.810;4.442;2023-08-08T08:18:30;17.00;99.90
23609;DHT22;11982;50.810;4.442;2023-08-08T08:20:56;16.90;99.90
23609;DHT22;11982;50.810;4.442;2023-08-08T08:23:22;17.00;99.90
23609;DHT22;11982;50.810;4.442;2023-08-08T08:25:47;17.10;99.90
23609;DHT22;11982;50.810;4.442;2023-08-08T08:31:11;17.30;99.90
23609;DHT22;11982;50.810;4.442;2023-08-08T08:33:37;17.10;99.90
23609;DHT22;11982;50.810;4.442;2023-08-08T08:36:03;17.20;99.90
23609;DHT22;11982;50.810;4.442;2023-08-08T08:38:28;17.10;99.90
23609;DHT22;11982;50.810;4.442;2023-08-08T08:40:56;17.20;99.90
23609;DHT22;11982;50.810;4.442;2023-08-08T08:43:22;17.30;99.90
23609;DHT22;11982;50.810;4.442;2023-08-08T08:45:51;17.40;99.90
23609;DHT22;11982;50.810;4.442;2023-08-08T08:48:18;17.40;99.90
23609;DHT22;11982;50.810;4.442;2023-08-08T08:50:47;17.60;99.90
23609;DHT22;11982;50.810;4.442;2023-08-08T08:56:04;18.10;99.90
23609;DHT22;11982;50.810;4.442;2023-08-08T08:58:31;18.10;99.90
23609;DHT22;11982;50.810;4.442;2023-08-08T09:00:57;18.20;99.90
23609;DHT22;11982;50.810;4.442;2023-08-08T09:03:24;18.20;99.90
23609;DHT22;11982;50.810;4.442;2023-08-08T09:05:49;18.20;99.90
23609;DHT22;11982;50.810;4.442;2023-08-08T09:08:16;18.20;99.90
23609;DHT22;11982;50.810;4.442;2023-08-08T09:10:42;18.10;99.90
23609;DHT22;11982;50.810;4.442;2023-08-08T09:13:15;17.90;99.90
23609;DHT22;11982;50.810;4.442;2023-08-08T09:15:41;17.90;99.90
23609;DHT22;11982;50.810;4.442;2023-08-08T09:18:07;18.30;99.90
23609;DHT22;11982;50.810;4.442;2023-08-08T09:20:33;18.30;99.90
23609;DHT22;11982;50.810;4.442;2023-08-08T09:22:58;18.30;99.90
23609;DHT22;11982;50.810;4.442;2023-08-08T09:25:26;18.30;99.90
23609;DHT22;11982;50.810;4.442;2023-08-08T09:27:52;18.10;99.90
23609;DHT22;11982;50.810;4.442;2023-08-08T09:30:19;18.40;99.90
23609;DHT22;11982;50.810;4.442;2023-08-08T09:32:45;18.60;99.90
23609;DHT22;11982;50.810;4.442;2023-08-08T09:35:10;18.50;99.90
23609;DHT22;11982;50.810;4.442;2023-08-08T09:37:37;18.50;99.90
23609;DHT22;11982;50.810;4.442;2023-08-08T09:40:05;18.30;99.90
23609;DHT22;11982;50.810;4.442;2023-08-08T09:42:34;18.40;99.90
23609;DHT22;11982;50.810;4.442;2023-08-08T09:45:00;18.60;99.90
23609;DHT22;11982;50.810;4.442;2023-08-08T09:47:26;18.90;99.90
23609;DHT22;11982;50.810;4.442;2023-08-08T09:49:59;19.40;99.90
23609;DHT22;11982;50.810;4.442;2023-08-08T09:52:27;19.40;99.90
23609;DHT22;11982;50.810;4.442;2023-08-08T09:54:53;19.30;99.90
23609;DHT22;11982;50.810;4.442;2023-08-08T09:57:19;19.40;99.90
23609;DHT22;11982;50.810;4.442;2023-08-08T09:59:46;19.30;99.90
23609;DHT22;11982;50.810;4.442;2023-08-08T10:02:14;19.30;99.90
23609;DHT22;11982;50.810;4.442;2023-08-08T10:04:45;19.10;99.90
23609;DHT22;11982;50.810;4.442;2023-08-08T10:07:10;19.20;99.90
23609;DHT22;11982;50.810;4.442;2023-08-08T10:09:36;19.00;99.90
23609;DHT22;11982;50.810;4.442;2023-08-08T10:12:04;18.50;99.90
23609;DHT22;11982;50.810;4.442;2023-08-08T10:14:31;18.60;99.90
23609;DHT22;11982;50.810;4.442;2023-08-08T10:16:57;18.70;99.90
23609;DHT22;11982;50.810;4.442;2023-08-08T10:19:24;18.90;99.90
23609;DHT22;11982;50.810;4.442;2023-08-08T10:21:59;19.20;99.90
23609;DHT22;11982;50.810;4.442;2023-08-08T10:24:33;19.10;99.90
23609;DHT22;11982;50.810;4.442;2023-08-08T10:27:01;18.90;99.90
23609;DHT22;11982;50.810;4.442;2023-08-08T10:29:30;18.60;99.90
23609;DHT22;11982;50.810;4.442;2023-08-08T10:32:04;18.30;99.90
23609;DHT22;11982;50.810;4.442;2023-08-08T10:34:41;18.10;99.90
23609;DHT22;11982;50.810;4.442;2023-08-08T10:37:12;18.00;99.90
23609;DHT22;11982;50.810;4.442;2023-08-08T10:39:48;17.90;99.90
23609;DHT22;11982;50.810;4.442;2023-08-08T10:42:18;17.80;99.90
23609;DHT22;11982;50.810;4.442;2023-08-08T10:44:50;18.00;99.90
23609;DHT22;11982;50.810;4.442;2023-08-08T10:47:24;18.10;99.90
23609;DHT22;11982;50.810;4.442;2023-08-08T10:50:09;18.00;99.90
23609;DHT22;11982;50.810;4.442;2023-08-08T10:55:33;17.70;99.90
23609;DHT22;11982;50.810;4.442;2023-08-08T10:58:08;17.80;99.90
23609;DHT22;11982;50.810;4.442;2023-08-08T11:00:35;18.10;99.90
23609;DHT22;11982;50.810;4.442;2023-08-08T11:03:02;18.30;99.90
23609;DHT22;11982;50.810;4.442;2023-08-08T11:05:35;18.50;99.90
23609;DHT22;11982;50.810;4.442;2023-08-08T11:08:03;18.80;99.90
23609;DHT22;11982;50.810;4.442;2023-08-08T11:10:30;18.90;99.90
23609;DHT22;11982;50.810;4.442;2023-08-08T11:13:01;19.30;99.90
23609;DHT22;11982;50.810;4.442;2023-08-08T11:15:29;19.40;99.90
23609;DHT22;11982;50.810;4.442;2023-08-08T11:17:56;19.40;99.90
23609;DHT22;11982;50.810;4.442;2023-08-08T11:20:23;19.60;99.90
23609;DHT22;11982;50.810;4.442;2023-08-08T11:22:53;19.50;99.90
23609;DHT22;11982;50.810;4.442;2023-08-08T11:25:20;19.60;99.90
23609;DHT22;11982;50.810;4.442;2023-08-08T11:27:50;20.20;99.90
23609;DHT22;11982;50.810;4.442;2023-08-08T11:30:16;20.30;99.90
23609;DHT22;11982;50.810;4.442;2023-08-08T11:32:42;20.10;99.90
23609;DHT22;11982;50.810;4.442;2023-08-08T11:35:08;19.80;99.90
23609;DHT22;11982;50.810;4.442;2023-08-08T11:37:34;19.50;99.90
23609;DHT22;11982;50.810;4.442;2023-08-08T11:40:01;19.70;99.90
23609;DHT22;11982;50.810;4.442;2023-08-08T11:42:27;19.80;99.90
23609;DHT22;11982;50.810;4.442;2023-08-08T11:44:53;19.30;99.90
23609;DHT22;11982;50.810;4.442;2023-08-08T11:47:24;19.00;99.90
23609;DHT22;11982;50.810;4.442;2023-08-08T11:49:51;18.90;99.90
23609;DHT22;11982;50.810;4.442;2023-08-08T11:52:19;18.80;99.90
23609;DHT22;11982;50.810;4.442;2023-08-08T11:54:57;18.70;99.90
23609;DHT22;11982;50.810;4.442;2023-08-08T11:57:23;18.80;99.90
23609;DHT22;11982;50.810;4.442;2023-08-08T11:59:49;18.80;99.90
23609;DHT22;11982;50.810;4.442;2023-08-08T12:02:15;19.10;99.90
23609;DHT22;11982;50.810;4.442;2023-08-08T12:04:45;19.10;99.90
23609;DHT22;11982;50.810;4.442;2023-08-08T12:07:11;19.40;99.90
23609;DHT22;11982;50.810;4.442;2023-08-08T12:09:37;20.20;99.90
23609;DHT22;11982;50.810;4.442;2023-08-08T12:12:04;20.70;99.90
23609;DHT22;11982;50.810;4.442;2023-08-08T12:14:36;20.70;99.90
23609;DHT22;11982;50.810;4.442;2023-08-08T12:17:02;20.50;99.90
23609;DHT22;11982;50.810;4.442;2023-08-08T12:19:27;20.20;99.90
23609;DHT22;11982;50.810;4.442;2023-08-08T12:21:54;20.20;99.90
23609;DHT22;11982;50.810;4.442;2023-08-08T12:24:20;20.00;99.90
23609;DHT22;11982;50.810;4.442;2023-08-08T12:26:46;19.70;99.90
23609;DHT22;11982;50.810;4.442;2023-08-08T12:29:12;19.30;99.90
23609;DHT22;11982;50.810;4.442;2023-08-08T12:31:38;19.60;99.90
23609;DHT22;11982;50.810;4.442;2023-08-08T12:34:04;20.10;99.90
23609;DHT22;11982;50.810;4.442;2023-08-08T12:36:30;20.20;99.90
23609;DHT22;11982;50.810;4.442;2023-08-08T12:38:56;20.50;99.90
23609;DHT22;11982;50.810;4.442;2023-08-08T12:41:25;20.20;99.90
23609;DHT22;11982;50.810;4.442;2023-08-08T12:43:51;20.10;99.90
23609;DHT22;11982;50.810;4.442;2023-08-08T12:46:17;20.40;99.90
23609;DHT22;11982;50.810;4.442;2023-08-08T12:48:43;20.80;99.90
23609;DHT22;11982;50.810;4.442;2023-08-08T12:51:10;20.70;99.90
23609;DHT22;11982;50.810;4.442;2023-08-08T12:53:35;20.50;99.90
23609;DHT22;11982;50.810;4.442;2023-08-08T12:56:01;20.10;99.90
23609;DHT22;11982;50.810;4.442;2023-08-08T12:58:27;20.60;99.90
23609;DHT22;11982;50.810;4.442;2023-08-08T13:00:53;20.90;99.90
23609;DHT22;11982;50.810;4.442;2023-08-08T13:03:20;20.90;99.90
23609;DHT22;11982;50.810;4.442;2023-08-08T13:05:47;21.00;99.90
23609;DHT22;11982;50.810;4.442;2023-08-08T13:08:13;21.40;99.90
23609;DHT22;11982;50.810;4.442;2023-08-08T13:10:41;21.30;99.90
23609;DHT22;11982;50.810;4.442;2023-08-08T13:13:07;21.00;99.90
23609;DHT22;11982;50.810;4.442;2023-08-08T13:15:38;20.80;99.90
23609;DHT22;11982;50.810;4.442;2023-08-08T13:18:05;20.80;99.90
23609;DHT22;11982;50.810;4.442;2023-08-08T13:20:30;20.70;99.90
23609;DHT22;11982;50.810;4.442;2023-08-08T13:22:57;20.50;99.90
23609;DHT22;11982;50.810;4.442;2023-08-08T13:25:22;20.30;99.90
23609;DHT22;11982;50.810;4.442;2023-08-08T13:27:52;20.30;99.90
23609;DHT22;11982;50.810;4.442;2023-08-08T13:30:18;20.20;99.90
23609;DHT22;11982;50.810;4.442;2023-08-08T13:32:52;20.30;99.90
23609;DHT22;11982;50.810;4.442;2023-08-08T13:35:22;20.40;99.90
23609;DHT22;11982;50.810;4.442;2023-08-08T13:37:48;20.20;99.90
23609;DHT22;11982;50.810;4.442;2023-08-08T13:40:16;20.30;99.90
23609;DHT22;11982;50.810;4.442;2023-08-08T13:42:42;20.40;99.90
23609;DHT22;11982;50.810;4.442;2023-08-08T13:45:10;20.20;99.90
23609;DHT22;11982;50.810;4.442;2023-08-08T13:47:36;20.30;99.90
23609;DHT22;11982;50.810;4.442;2023-08-08T13:50:01;20.80;99.90
23609;DHT22;11982;50.810;4.442;2023-08-08T13:52:28;20.80;99.90
23609;DHT22;11982;50.810;4.442;2023-08-08T13:54:56;21.10;99.90
23609;DHT22;11982;50.810;4.442;2023-08-08T13:57:22;21.60;99.90
23609;DHT22;11982;50.810;4.442;2023-08-08T13:59:48;21.90;99.90
23609;DHT22;11982;50.810;4.442;2023-08-08T14:02:14;21.80;99.90
23609;DHT22;11982;50.810;4.442;2023-08-08T14:04:39;21.50;99.90
23609;DHT22;11982;50.810;4.442;2023-08-08T14:07:05;21.60;99.90
23609;DHT22;11982;50.810;4.442;2023-08-08T14:09:32;21.60;99.90
23609;DHT22;11982;50.810;4.442;2023-08-08T14:11:58;21.20;99.90
23609;DHT22;11982;50.810;4.442;2023-08-08T14:14:24;20.80;99.90
23609;DHT22;11982;50.810;4.442;2023-08-08T14:16:50;20.70;99.90
23609;DHT22;11982;50.810;4.442;2023-08-08T14:19:15;20.70;99.90
23609;DHT22;11982;50.810;4.442;2023-08-08T14:21:42;20.70;99.90
23609;DHT22;11982;50.810;4.442;2023-08-08T14:24:08;20.50;99.90
23609;DHT22;11982;50.810;4.442;2023-08-08T14:26:33;20.30;99.90
23609;DHT22;11982;50.810;4.442;2023-08-08T14:28:59;20.20;99.90
23609;DHT22;11982;50.810;4.442;2023-08-08T14:31:25;20.20;99.90
23609;DHT22;11982;50.810;4.442;2023-08-08T14:33:50;19.80;99.90
23609;DHT22;11982;50.810;4.442;2023-08-08T14:36:16;19.60;99.90
23609;DHT22;11982;50.810;4.442;2023-08-08T14:38:42;19.60;99.90
23609;DHT22;11982;50.810;4.442;2023-08-08T14:41:07;19.50;99.90
23609;DHT22;11982;50.810;4.442;2023-08-08T14:43:33;19.30;99.90
23609;DHT22;11982;50.810;4.442;2023-08-08T14:45:59;19.20;99.90
23609;DHT22;11982;50.810;4.442;2023-08-08T14:48:25;19.10;99.90
23609;DHT22;11982;50.810;4.442;2023-08-08T14:50:51;19.20;99.90
23609;DHT22;11982;50.810;4.442;2023-08-08T14:53:16;19.30;99.90
23609;DHT22;11982;50.810;4.442;2023-08-08T14:55:42;19.50;99.90
23609;DHT22;11982;50.810;4.442;2023-08-08T14:58:08;19.60;99.90
23609;DHT22;11982;50.810;4.442;2023-08-08T15:00:33;19.50;99.90
23609;DHT22;11982;50.810;4.442;2023-08-08T15:02:59;19.50;99.90
23609;DHT22;11982;50.810;4.442;2023-08-08T15:05:24;19.50;99.90
23609;DHT22;11982;50.810;4.442;2023-08-08T15:07:50;19.50;99.90
23609;DHT22;11982;50.810;4.442;2023-08-08T15:10:16;19.40;99.90
23609;DHT22;11982;50.810;4.442;2023-08-08T15:12:42;19.20;99.90
23609;DHT22;11982;50.810;4.442;2023-08-08T15:15:08;19.10;99.90
23609;DHT22;11982;50.810;4.442;2023-08-08T15:17:34;19.10;99.90
23609;DHT22;11982;50.810;4.442;2023-08-08T15:20:02;19.10;99.90
23609;DHT22;11982;50.810;4.442;2023-08-08T15:22:28;19.20;99.90
23609;DHT22;11982;50.810;4.442;2023-08-08T15:24:54;19.30;99.90
23609;DHT22;11982;50.810;4.442;2023-08-08T15:27:20;19.60;99.90
23609;DHT22;11982;50.810;4.442;2023-08-08T15:29:45;19.50;99.90
23609;DHT22;11982;50.810;4.442;2023-08-08T15:32:11;19.00;99.90
23609;DHT22;11982;50.810;4.442;2023-08-08T15:34:37;19.00;99.90
23609;DHT22;11982;50.810;4.442;2023-08-08T15:37:03;18.90;99.90
23609;DHT22;11982;50.810;4.442;2023-08-08T15:39:29;18.90;99.90